Time;durP1;ratioP1;P1;durP2;ratioP2;P2;SDS_P1;SDS_P2;PMS_P1;PMS_P2;Temp;Humidity;BMP_temperature;BMP_pressure;BME280_temperature;BME280_humidity;BME280_pressure;Samples;Min_cycle;Max_cycle;Signal;HPM_P1;HPM_P2
2023/07/30 00:04:59;;;;;;;;;;;;;;;17.42;100.00;95379.22;10524749;28;1892;-70
2023/07/30 00:10:09;;;;;;;;;;;;;;;17.06;100.00;95390.56;10503988;28;1992;-70
2023/07/30 00:15:15;;;;;;;;;;;;;;;16.92;100.00;95394.25;10520912;28;1976;-70
2023/07/30 00:20:18;;;;;;;;;;;;;;;16.91;100.00;95389.13;10525637;28;1979;-71
2023/07/30 00:25:22;;;;;;;;;;;;;;;17.02;100.00;95384.97;10525051;28;1917;-69
2023/07/30 00:30:26;;;;;;;;;;;;;;;17.13;100.00;95386.22;10511613;28;2510;-69
2023/07/30 00:35:30;;;;;;;;;;;;;;;17.21;100.00;95393.53;10517505;28;1955;-69
2023/07/30 00:40:35;;;;;;;;;;;;;;;17.18;100.00;95393.41;10502749;28;4939;-69
2023/07/30 00:45:40;;;;;;;;;;;;;;;17.22;100.00;95402.47;10520917;28;2187;-69
2023/07/30 00:50:43;;;;;;;;;;;;;;;17.22;100.00;95405.19;10518621;28;2124;-70
2023/07/30 00:55:48;;;;;;;;;;;;;;;17.26;100.00;95417.81;10515056;28;1953;-70
2023/07/30 01:00:56;;;;;;;;;;;;;;;17.17;100.00;95413.50;10519180;28;1960;-69
2023/07/30 01:05:59;;;;;;;;;;;;;;;17.13;100.00;95401.72;10492586;28;2086;-69
2023/07/30 01:11:03;;;;;;;;;;;;;;;17.05;100.00;95397.91;10511972;28;1912;-70
2023/07/30 01:16:07;;;;;;;;;;;;;;;17.03;100.00;95389.25;10520699;28;2002;-75
2023/07/30 01:21:12;;;;;;;;;;;;;;;16.97;100.00;95396.00;10523918;28;1967;-71
2023/07/30 01:26:20;;;;;;;;;;;;;;;17.02;100.00;95393.09;10499145;28;2730;-69
2023/07/30 01:31:26;;;;;;;;;;;;;;;16.90;100.00;95404.63;10517898;28;2172;-70
2023/07/30 01:36:33;;;;;;;;;;;;;;;16.86;100.00;95400.97;10514605;28;4465;-70
2023/07/30 01:41:37;;;;;;;;;;;;;;;16.88;100.00;95398.72;10501306;28;2259;-70
2023/07/30 01:46:42;;;;;;;;;;;;;;;17.03;100.00;95402.84;10514213;28;1948;-69
2023/07/30 01:51:47;;;;;;;;;;;;;;;17.06;100.00;95402.22;10513827;28;2223;-70
2023/07/30 01:56:54;;;;;;;;;;;;;;;17.13;100.00;95397.06;10513921;28;2078;-70
2023/07/30 02:01:57;;;;;;;;;;;;;;;17.12;100.00;95400.91;10515062;28;1954;-70
2023/07/30 02:07:00;;;;;;;;;;;;;;;17.09;100.00;95398.84;10511042;28;1953;-69
2023/07/30 02:12:06;;;;;;;;;;;;;;;17.09;100.00;95393.41;10516237;28;1924;-69
2023/07/30 02:17:11;;;;;;;;;;;;;;;17.11;100.00;95395.78;10515791;28;1965;-69
2023/07/30 02:22:17;;;;;;;;;;;;;;;17.24;100.00;95392.91;10516315;28;2405;-70
2023/07/30 02:27:22;;;;;;;;;;;;;;;17.32;100.00;95393.97;10527513;28;1890;-70
2023/07/30 02:32:29;;;;;;;;;;;;;;;17.41;100.00;95392.00;10504781;28;2136;-71
2023/07/30 02:37:34;;;;;;;;;;;;;;;17.45;100.00;95375.88;10520475;28;4421;-70
2023/07/30 02:42:38;;;;;;;;;;;;;;;17.47;100.00;95387.19;10526771;28;1897;-68
2023/07/30 02:47:43;;;;;;;;;;;;;;;17.13;100.00;95390.84;10519730;28;2115;-74
2023/07/30 02:52:55;;;;;;;;;;;;;;;16.79;100.00;95402.56;10508921;28;1960;-76
2023/07/30 02:58:01;;;;;;;;;;;;;;;16.52;100.00;95418.03;10530263;28;1975;-76
2023/07/30 03:03:10;;;;;;;;;;;;;;;16.33;100.00;95440.06;10522657;28;1921;-76
2023/07/30 03:08:18;;;;;;;;;;;;;;;16.29;100.00;95449.97;10523782;28;2043;-77
2023/07/30 03:13:24;;;;;;;;;;;;;;;16.20;100.00;95452.66;10527045;28;1969;-78
2023/07/30 03:18:30;;;;;;;;;;;;;;;16.20;100.00;95458.06;10530160;28;2333;-76
2023/07/30 03:23:34;;;;;;;;;;;;;;;16.11;100.00;95442.91;10509446;28;2119;-77
2023/07/30 03:28:43;;;;;;;;;;;;;;;16.06;100.00;95452.00;10531635;28;1830;-79
2023/07/30 03:33:51;;;;;;;;;;;;;;;15.95;100.00;95446.06;10524292;28;2238;-78
2023/07/30 03:38:55;;;;;;;;;;;;;;;15.86;100.00;95453.38;10508541;28;4608;-79
2023/07/30 03:44:04;;;;;;;;;;;;;;;15.83;100.00;95455.91;10524074;28;1952;-79
2023/07/30 03:49:15;;;;;;;;;;;;;;;15.76;100.00;95452.88;10524177;28;1912;-78
2023/07/30 03:54:21;;;;;;;;;;;;;;;15.73;100.00;95456.22;10523048;28;2274;-78
2023/07/30 03:59:32;;;;;;;;;;;;;;;15.73;100.00;95459.72;10530833;28;2103;-78
2023/07/30 04:04:38;;;;;;;;;;;;;;;15.78;100.00;95458.78;10530016;28;1773;-76
2023/07/30 04:09:49;;;;;;;;;;;;;;;15.80;100.00;95460.06;10526674;28;1981;-78
2023/07/30 04:14:53;;;;;;;;;;;;;;;15.80;100.00;95460.06;10523207;28;2334;-78
2023/07/30 04:20:00;;;;;;;;;;;;;;;15.91;100.00;95460.59;10515612;28;1938;-81
2023/07/30 04:25:07;;;;;;;;;;;;;;;16.01;100.00;95456.75;10529848;28;1934;-80
2023/07/30 04:30:17;;;;;;;;;;;;;;;16.15;100.00;95460.94;10521756;28;1896;-80
2023/07/30 04:35:45;;;;;;;;;;;;;;;16.42;100.00;95475.34;10528088;28;2005;-80
2023/07/30 04:40:55;;;;;;;;;;;;;;;16.82;100.00;95486.09;10514443;28;2008;-79
2023/07/30 04:45:58;;;;;;;;;;;;;;;16.98;100.00;95487.19;10503792;28;1883;-79
2023/07/30 04:51:09;;;;;;;;;;;;;;;17.29;100.00;95485.06;10516725;28;1897;-80
2023/07/30 04:56:19;;;;;;;;;;;;;;;17.60;100.00;95480.50;10523119;28;1910;-78
2023/07/30 05:01:22;;;;;;;;;;;;;;;17.70;100.00;95486.38;10521621;28;1856;-81
2023/07/30 05:06:25;;;;;;;;;;;;;;;17.70;100.00;95488.31;10518523;28;1937;-80
2023/07/30 05:11:34;;;;;;;;;;;;;;;17.77;100.00;95496.78;10523904;28;2082;-79
2023/07/30 05:16:42;;;;;;;;;;;;;;;18.06;100.00;95487.84;10521311;28;1906;-78
2023/07/30 05:21:50;;;;;;;;;;;;;;;18.08;100.00;95491.06;10525784;28;1866;-81
2023/07/30 05:26:59;;;;;;;;;;;;;;;17.68;100.00;95494.06;10539791;27;1883;-81
2023/07/30 05:32:54;;;;;;;;;;;;;;;18.25;100.00;95512.69;10525243;28;1883;-81
2023/07/30 05:38:01;;;;;;;;;;;;;;;19.01;100.00;95500.03;10516162;28;4552;-78
2023/07/30 05:43:23;;;;;;;;;;;;;;;;;;;;;
2023/07/30 05:54:25;;;;;;;;;;;;;;;19.86;100.00;95489.41;10506181;28;2241;-77
2023/07/30 05:59:32;;;;;;;;;;;;;;;19.96;100.00;95480.75;10514498;28;1893;-77
2023/07/30 06:04:46;;;;;;;;;;;;;;;20.18;100.00;95476.78;10500219;28;2443;-80
2023/07/30 06:09:54;;;;;;;;;;;;;;;20.34;100.00;95473.38;10507747;28;1920;-78
2023/07/30 06:14:59;;;;;;;;;;;;;;;20.37;100.00;95478.94;10513964;28;1914;-78
2023/07/30 06:30:59;;;;;;;;;;;;;;;21.21;100.00;95467.34;10517267;28;2019;-77
2023/07/30 06:36:03;;;;;;;;;;;;;;;21.19;100.00;95458.72;10506740;28;4537;-81
2023/07/30 06:41:09;;;;;;;;;;;;;;;21.35;100.00;95465.03;10506378;28;1894;-80
2023/07/30 06:46:12;;;;;;;;;;;;;;;21.47;100.00;95456.75;10512435;28;1837;-78
2023/07/30 06:56:41;;;;;;;;;;;;;;;21.90;100.00;95466.06;10511336;28;1900;-80
2023/07/30 07:02:05;;;;;;;;;;;;;;;22.20;100.00;95463.66;10508359;28;2271;-78
2023/07/30 07:12:33;;;;;;;;;;;;;;;21.91;100.00;95462.16;10518089;28;2080;-76
2023/07/30 07:17:37;;;;;;;;;;;;;;;21.76;100.00;95468.44;10520262;28;1975;-82
2023/07/30 07:22:47;;;;;;;;;;;;;;;22.21;100.00;95464.47;10528551;28;1893;-77
2023/07/30 07:28:41;;;;;;;;;;;;;;;22.42;100.00;95473.16;10514775;28;2189;-79
2023/07/30 07:33:45;;;;;;;;;;;;;;;22.89;100.00;95467.56;10518770;28;1848;-79
2023/07/30 07:44:08;;;;;;;;;;;;;;;22.88;100.00;95468.72;10534527;28;1934;-79
2023/07/30 07:49:30;;;;;;;;;;;;;;;22.86;100.00;95467.47;10528123;28;1826;-79
2023/07/30 07:54:34;;;;;;;;;;;;;;;23.60;100.00;95481.91;10526837;28;1902;-80
2023/07/30 07:59:38;;;;;;;;;;;;;;;23.11;100.00;95468.81;10527645;28;2381;-79
2023/07/30 08:04:49;;;;;;;;;;;;;;;22.71;100.00;95471.06;10525805;28;1910;-79
2023/07/30 08:09:54;;;;;;;;;;;;;;;22.94;100.00;95480.19;10527056;28;2094;-78
2023/07/30 08:14:59;;;;;;;;;;;;;;;22.81;100.00;95475.97;10510729;28;1909;-80
2023/07/30 08:20:04;;;;;;;;;;;;;;;22.36;100.00;95480.06;10528536;28;1861;-79
2023/07/30 08:25:14;;;;;;;;;;;;;;;23.30;100.00;95476.25;10521302;28;1921;-79
2023/07/30 08:30:21;;;;;;;;;;;;;;;23.14;100.00;95473.56;10524730;28;1993;-78
2023/07/30 08:35:26;;;;;;;;;;;;;;;22.86;100.00;95467.47;10527883;28;2043;-79
2023/07/30 08:40:32;;;;;;;;;;;;;;;23.14;100.00;95461.81;10526418;28;4465;-78
2023/07/30 08:45:36;;;;;;;;;;;;;;;23.46;100.00;95463.22;10521089;28;1821;-77
2023/07/30 08:50:45;;;;;;;;;;;;;;;23.59;100.00;95460.28;10531515;28;1861;-79
2023/07/30 08:55:58;;;;;;;;;;;;;;;22.72;100.00;95459.75;10526823;28;2413;-79
2023/07/30 09:01:04;;;;;;;;;;;;;;;23.06;100.00;95449.91;10519434;28;1837;-78
2023/07/30 09:06:11;;;;;;;;;;;;;;;23.68;100.00;95441.69;10525078;28;1897;-79
2023/07/30 09:11:20;;;;;;;;;;;;;;;24.12;100.00;95433.00;10529151;28;2127;-80
2023/07/30 09:16:29;;;;;;;;;;;;;;;24.67;100.00;95428.69;10533645;28;1965;-77
2023/07/30 09:21:38;;;;;;;;;;;;;;;24.19;100.00;95416.63;10533956;28;1876;-78
2023/07/30 09:26:44;;;;;;;;;;;;;;;23.90;100.00;95418.13;10529253;28;1944;-78
2023/07/30 09:31:48;;;;;;;;;;;;;;;24.33;100.00;95427.03;10524774;28;1960;-79
2023/07/30 09:36:52;;;;;;;;;;;;;;;24.34;100.00;95423.16;10523390;28;4648;-78
2023/07/30 09:47:14;;;;;;;;;;;;;;;24.80;100.00;95418.28;10523058;28;1738;-81
2023/07/30 09:52:19;;;;;;;;;;;;;;;25.04;100.00;95406.00;10516078;28;2428;-75
2023/07/30 09:57:27;;;;;;;;;;;;;;;24.71;100.00;95415.03;10514850;28;2053;-75
2023/07/30 10:02:31;;;;;;;;;;;;;;;24.65;100.00;95422.78;10522849;28;1861;-75
2023/07/30 10:13:28;;;;;;;;;;;;;;;24.07;100.00;95425.88;10521691;28;1950;-75
2023/07/30 10:18:35;;;;;;;;;;;;;;;24.03;100.00;95425.00;10522376;28;1918;-76
2023/07/30 10:23:41;;;;;;;;;;;;;;;23.95;100.00;95429.59;10522034;28;1898;-75
2023/07/30 10:28:54;;;;;;;;;;;;;;;23.95;100.00;95432.34;10521937;28;1825;-76
2023/07/30 10:34:17;;;;;;;;;;;;;;;24.88;100.00;95436.47;10522939;28;1940;-75
2023/07/30 10:39:24;;;;;;;;;;;;;;;25.27;100.00;95428.69;10516650;28;4566;-76
2023/07/30 10:44:28;;;;;;;;;;;;;;;25.58;100.00;95430.19;10521167;28;1894;-73
2023/07/30 10:49:36;;;;;;;;;;;;;;;25.92;99.19;95419.13;10506069;28;1894;-74
2023/07/30 10:54:51;;;;;;;;;;;;;;;26.03;96.54;95410.94;10516419;28;1971;-74
2023/07/30 10:59:56;;;;;;;;;;;;;;;26.45;93.50;95409.66;10519680;28;1985;-75
2023/07/30 11:05:00;;;;;;;;;;;;;;;26.12;95.96;95420.44;10529374;28;1888;-73
2023/07/30 11:10:07;;;;;;;;;;;;;;;26.19;90.91;95402.38;10512664;28;1973;-74
2023/07/30 11:15:20;;;;;;;;;;;;;;;26.32;84.83;95409.97;10506690;28;1826;-74
2023/07/30 11:20:26;;;;;;;;;;;;;;;26.02;83.74;95409.34;10523874;28;2043;-75
2023/07/30 11:25:32;;;;;;;;;;;;;;;26.53;81.77;95406.59;10521819;28;2024;-75
2023/07/30 11:30:38;;;;;;;;;;;;;;;26.28;84.65;95417.44;10526482;28;1876;-74
2023/07/30 11:35:42;;;;;;;;;;;;;;;26.65;82.30;95406.22;10530435;28;1906;-74
2023/07/30 11:40:49;;;;;;;;;;;;;;;26.07;81.72;95395.22;10523903;28;4751;-74
2023/07/30 11:45:55;;;;;;;;;;;;;;;24.77;97.60;95450.06;10524581;28;2246;-74
2023/07/30 11:51:17;;;;;;;;;;;;;;;23.23;100.00;95472.56;10508520;28;1953;-76
2023/07/30 11:56:34;;;;;;;;;;;;;;;22.74;100.00;95457.44;10529580;28;1917;-76
2023/07/30 12:01:37;;;;;;;;;;;;;;;23.30;100.00;95459.00;10517942;28;1933;-75
2023/07/30 12:06:43;;;;;;;;;;;;;;;23.33;100.00;95456.31;10523562;28;1876;-73
2023/07/30 12:11:47;;;;;;;;;;;;;;;23.16;100.00;95459.50;10522037;28;1972;-74
2023/07/30 12:16:51;;;;;;;;;;;;;;;23.17;100.00;95464.63;10530325;28;1964;-74
2023/07/30 12:21:55;;;;;;;;;;;;;;;23.16;100.00;95460.31;10511176;28;1917;-75
2023/07/30 12:27:01;;;;;;;;;;;;;;;22.96;100.00;95466.91;10526166;28;1960;-74
2023/07/30 12:32:04;;;;;;;;;;;;;;;22.97;100.00;95478.69;10528919;28;1913;-75
2023/07/30 12:37:09;;;;;;;;;;;;;;;22.62;100.00;95477.53;10510075;28;4538;-75
2023/07/30 12:42:13;;;;;;;;;;;;;;;23.41;100.00;95476.41;10506750;28;2340;-73
2023/07/30 12:47:21;;;;;;;;;;;;;;;23.29;100.00;95484.84;10515168;28;2083;-74
2023/07/30 12:52:32;;;;;;;;;;;;;;;23.76;100.00;95481.03;10531307;28;1861;-74
2023/07/30 12:57:40;;;;;;;;;;;;;;;23.94;100.00;95471.94;10521292;28;1944;-75
2023/07/30 13:02:46;;;;;;;;;;;;;;;24.26;100.00;95466.97;10524800;28;2075;-75
2023/07/30 13:07:49;;;;;;;;;;;;;;;24.47;100.00;95465.72;10526749;28;1853;-75
2023/07/30 13:12:52;;;;;;;;;;;;;;;23.18;100.00;95468.94;10520884;28;1904;-74
2023/07/30 13:17:57;;;;;;;;;;;;;;;22.77;100.00;95480.56;10523892;28;1914;-74
2023/07/30 13:23:07;;;;;;;;;;;;;;;22.71;100.00;95492.97;10533850;28;1868;-74
2023/07/30 13:28:11;;;;;;;;;;;;;;;22.46;100.00;95498.72;10504026;28;1940;-75
2023/07/30 13:33:16;;;;;;;;;;;;;;;21.88;100.00;95500.38;10517700;28;1920;-75
2023/07/30 13:38:21;;;;;;;;;;;;;;;21.31;100.00;95513.31;10522822;28;2350;-75
2023/07/30 13:43:26;;;;;;;;;;;;;;;20.83;100.00;95539.66;10504156;28;1847;-75
2023/07/30 13:48:31;;;;;;;;;;;;;;;18.69;100.00;95600.38;10520418;28;1893;-76
2023/07/30 13:53:40;;;;;;;;;;;;;;;17.92;100.00;95612.38;10508981;28;1829;-74
2023/07/30 13:58:50;;;;;;;;;;;;;;;18.83;100.00;95603.69;10518059;28;1968;-74
2023/07/30 14:03:55;;;;;;;;;;;;;;;19.53;100.00;95603.13;10524843;28;1782;-75
2023/07/30 14:09:03;;;;;;;;;;;;;;;19.75;100.00;95588.38;10523806;28;1822;-76
2023/07/30 14:14:06;;;;;;;;;;;;;;;20.36;100.00;95575.63;10526802;28;2074;-74
2023/07/30 14:19:10;;;;;;;;;;;;;;;20.68;100.00;95559.50;10531814;28;1973;-71
2023/07/30 14:24:14;;;;;;;;;;;;;;;20.89;100.00;95575.72;10531113;28;1910;-73
2023/07/30 14:29:19;;;;;;;;;;;;;;;20.90;100.00;95556.25;10530285;28;1802;-72
2023/07/30 14:34:23;;;;;;;;;;;;;;;21.13;100.00;95550.28;10532612;28;2399;-73
2023/07/30 14:39:27;;;;;;;;;;;;;;;21.57;100.00;95548.44;10541352;28;4565;-74
2023/07/30 14:44:31;;;;;;;;;;;;;;;21.31;100.00;95537.94;10540922;28;1833;-73
2023/07/30 14:49:35;;;;;;;;;;;;;;;21.72;100.00;95546.88;10537166;28;1893;-74
2023/07/30 14:54:44;;;;;;;;;;;;;;;22.47;100.00;95530.41;10537250;28;1920;-74
2023/07/30 14:59:48;;;;;;;;;;;;;;;23.07;100.00;95519.22;10530996;28;1979;-75
2023/07/30 15:04:54;;;;;;;;;;;;;;;22.86;100.00;95511.31;10530847;28;1821;-72
2023/07/30 15:09:57;;;;;;;;;;;;;;;23.11;100.00;95500.91;10526266;28;1861;-73
2023/07/30 15:15:05;;;;;;;;;;;;;;;23.23;100.00;95508.22;10525428;28;1896;-74
2023/07/30 15:20:14;;;;;;;;;;;;;;;23.20;100.00;95510.50;10516153;28;1942;-74
2023/07/30 15:25:30;;;;;;;;;;;;;;;22.79;100.00;95517.44;10505341;28;1896;-75
2023/07/30 15:30:42;;;;;;;;;;;;;;;22.73;100.00;95518.09;10512634;28;2371;-73
2023/07/30 15:35:50;;;;;;;;;;;;;;;23.19;100.00;95497.94;10535319;28;1908;-73
2023/07/30 15:40:57;;;;;;;;;;;;;;;23.12;100.00;95503.28;10531250;28;1967;-73
2023/07/30 15:46:02;;;;;;;;;;;;;;;23.29;100.00;95499.34;10525491;28;1933;-74
2023/07/30 15:51:06;;;;;;;;;;;;;;;23.56;100.00;95499.44;10521356;28;1921;-73
2023/07/30 16:01:26;;;;;;;;;;;;;;;22.93;100.00;95501.34;10525577;28;2197;-74
2023/07/30 16:06:34;;;;;;;;;;;;;;;22.91;100.00;95502.84;10526588;28;2123;-74
2023/07/30 16:11:40;;;;;;;;;;;;;;;22.86;100.00;95494.88;10521515;28;1924;-75
2023/07/30 16:16:43;;;;;;;;;;;;;;;22.96;100.00;95486.09;10527897;28;1921;-74
2023/07/30 16:21:48;;;;;;;;;;;;;;;22.75;100.00;95491.13;10504766;28;1902;-72
2023/07/30 16:26:55;;;;;;;;;;;;;;;22.37;100.00;95495.34;10520206;28;2338;-74
2023/07/30 16:31:59;;;;;;;;;;;;;;;22.45;100.00;95494.34;10535018;28;1814;-72
2023/07/30 16:37:10;;;;;;;;;;;;;;;22.41;100.00;95507.19;10525956;28;4510;-71
2023/07/30 16:42:14;;;;;;;;;;;;;;;22.52;100.00;95501.94;10518804;28;1898;-72
2023/07/30 16:47:20;;;;;;;;;;;;;;;22.11;100.00;95517.81;10520953;28;1923;-72
2023/07/30 16:52:27;;;;;;;;;;;;;;;22.67;100.00;95510.13;10518121;28;1963;-71
2023/07/30 16:57:33;;;;;;;;;;;;;;;22.90;100.00;95514.94;10497886;28;2118;-72
2023/07/30 17:02:37;;;;;;;;;;;;;;;22.42;100.00;95518.94;10516035;28;1945;-72
2023/07/30 17:07:44;;;;;;;;;;;;;;;22.21;100.00;95513.75;10506549;28;2065;-70
2023/07/30 17:12:52;;;;;;;;;;;;;;;22.16;100.00;95522.22;10520340;28;1869;-73
2023/07/30 17:17:55;;;;;;;;;;;;;;;21.61;100.00;95524.69;10517784;28;1979;-72
2023/07/30 17:23:01;;;;;;;;;;;;;;;21.35;100.00;95533.38;10521114;28;2416;-71
2023/07/30 17:28:16;;;;;;;;;;;;;;;21.31;100.00;95537.94;10520591;28;1873;-72
2023/07/30 17:33:19;;;;;;;;;;;;;;;21.04;100.00;95545.75;10528502;28;2034;-72
2023/07/30 17:38:22;;;;;;;;;;;;;;;20.90;100.00;95566.38;10519423;28;4549;-72
2023/07/30 17:43:27;;;;;;;;;;;;;;;20.90;100.00;95572.66;10520463;28;2071;-74
2023/07/30 17:48:35;;;;;;;;;;;;;;;20.93;100.00;95566.50;10517100;28;1853;-75
2023/07/30 17:53:40;;;;;;;;;;;;;;;20.79;100.00;95582.44;10513614;28;1885;-73
2023/07/30 17:58:44;;;;;;;;;;;;;;;20.58;100.00;95587.25;10503513;28;1993;-74
2023/07/30 18:03:50;;;;;;;;;;;;;;;20.31;100.00;95594.97;10499259;28;2106;-73
2023/07/30 18:08:54;;;;;;;;;;;;;;;20.23;100.00;95615.75;10514349;28;2019;-74
2023/07/30 18:13:58;;;;;;;;;;;;;;;20.08;100.00;95607.41;10501156;28;2016;-73
2023/07/30 18:19:03;;;;;;;;;;;;;;;19.84;100.00;95613.59;10522759;28;2256;-72
2023/07/30 18:24:12;;;;;;;;;;;;;;;19.82;100.00;95610.44;10514928;28;2028;-73
2023/07/30 18:29:19;;;;;;;;;;;;;;;19.60;100.00;95619.78;10514125;28;1897;-74
2023/07/30 18:34:26;;;;;;;;;;;;;;;19.61;100.00;95635.00;10499492;28;1992;-74
2023/07/30 18:39:31;;;;;;;;;;;;;;;19.48;100.00;95649.69;10520528;28;4676;-73
2023/07/30 18:44:38;;;;;;;;;;;;;;;19.43;100.00;95656.94;10514990;28;2446;-74
2023/07/30 18:49:43;;;;;;;;;;;;;;;19.30;100.00;95671.63;10516114;28;1872;-74
2023/07/30 18:54:47;;;;;;;;;;;;;;;19.17;100.00;95683.56;10515126;28;1978;-73
2023/07/30 18:59:52;;;;;;;;;;;;;;;19.13;100.00;95682.63;10521495;28;1994;-74
2023/07/30 19:04:59;;;;;;;;;;;;;;;18.90;100.00;95693.81;10524112;28;2048;-72
2023/07/30 19:10:05;;;;;;;;;;;;;;;18.87;100.00;95701.84;10509116;28;1885;-73
2023/07/30 19:15:11;;;;;;;;;;;;;;;18.78;100.00;95715.50;10523944;28;2392;-73
2023/07/30 19:20:14;;;;;;;;;;;;;;;18.65;100.00;95716.50;10519309;28;1985;-74
2023/07/30 19:25:20;;;;;;;;;;;;;;;18.50;100.00;95722.47;10519392;28;2016;-73
2023/07/30 19:30:24;;;;;;;;;;;;;;;18.51;100.00;95730.31;10507368;28;2347;-74
2023/07/30 19:35:27;;;;;;;;;;;;;;;18.43;100.00;95738.50;10525498;28;1904;-72
2023/07/30 19:40:54;;;;;;;;;;;;;;;18.54;100.00;95748.72;10501591;28;4970;-72
2023/07/30 19:46:08;;;;;;;;;;;;;;;18.51;100.00;95754.81;10519513;28;1965;-72
2023/07/30 19:51:25;;;;;;;;;;;;;;;18.49;100.00;95757.03;10525999;28;2072;-73
2023/07/30 19:56:38;;;;;;;;;;;;;;;18.42;100.00;95777.72;10503348;28;1921;-74
2023/07/30 20:01:43;;;;;;;;;;;;;;;18.36;100.00;95786.06;10506521;28;2256;-73
2023/07/30 20:06:54;;;;;;;;;;;;;;;18.30;100.00;95786.53;10524909;28;1904;-73
2023/07/30 20:11:59;;;;;;;;;;;;;;;18.24;100.00;95799.50;10520365;28;2298;-75
2023/07/30 20:17:04;;;;;;;;;;;;;;;18.17;100.00;95812.00;10527966;28;1908;-75
2023/07/30 20:22:11;;;;;;;;;;;;;;;18.19;100.00;95816.00;10523446;28;1956;-75
2023/07/30 20:27:26;;;;;;;;;;;;;;;18.03;100.00;95806.72;10527718;28;1904;-75
2023/07/30 20:32:31;;;;;;;;;;;;;;;17.94;100.00;95817.63;10528744;28;1865;-75
2023/07/30 20:37:39;;;;;;;;;;;;;;;17.84;100.00;95804.31;10525744;28;4501;-74
2023/07/30 20:42:44;;;;;;;;;;;;;;;17.71;100.00;95803.34;10512146;28;2045;-75
2023/07/30 20:47:47;;;;;;;;;;;;;;;17.51;100.00;95815.59;10527370;28;1865;-74
2023/07/30 20:52:53;;;;;;;;;;;;;;;17.47;100.00;95809.19;10528632;28;1937;-75
2023/07/30 20:58:07;;;;;;;;;;;;;;;17.54;100.00;95809.50;10505008;28;1970;-75
2023/07/30 21:03:17;;;;;;;;;;;;;;;17.53;100.00;95813.34;10523051;28;1897;-74
2023/07/30 21:08:38;;;;;;;;;;;;;;;17.55;100.00;95810.31;10500490;28;2457;-74
2023/07/30 21:13:42;;;;;;;;;;;;;;;17.55;100.00;95810.31;10520977;28;1889;-75
2023/07/30 21:18:52;;;;;;;;;;;;;;;17.51;100.00;95815.59;10526517;28;1971;-74
2023/07/30 21:23:55;;;;;;;;;;;;;;;17.42;100.00;95814.75;10501353;28;1912;-75
2023/07/30 21:29:00;;;;;;;;;;;;;;;17.43;100.00;95821.00;10521324;28;1912;-75
2023/07/30 21:34:09;;;;;;;;;;;;;;;17.40;100.00;95813.50;10514942;28;2125;-75
2023/07/30 21:39:12;;;;;;;;;;;;;;;17.32;100.00;95814.28;10512366;28;4546;-74
2023/07/30 21:44:36;;;;;;;;;;;;;;;17.26;100.00;95814.41;10526306;28;1877;-75
2023/07/30 21:49:39;;;;;;;;;;;;;;;17.18;100.00;95815.19;10519514;28;1822;-74
2023/07/30 21:54:45;;;;;;;;;;;;;;;17.21;100.00;95817.25;10517390;28;2048;-74
2023/07/30 21:59:54;;;;;;;;;;;;;;;17.22;100.00;95810.72;10496927;28;1991;-74
2023/07/30 22:05:01;;;;;;;;;;;;;;;17.17;100.00;95813.56;10497126;28;1853;-74
2023/07/30 22:10:09;;;;;;;;;;;;;;;17.14;100.00;95822.34;10515884;28;1957;-75
2023/07/30 22:15:12;;;;;;;;;;;;;;;16.96;100.00;95815.25;10496274;28;1865;-74
2023/07/30 22:20:20;;;;;;;;;;;;;;;16.78;100.00;95824.41;10499380;28;1987;-74
2023/07/30 22:25:27;;;;;;;;;;;;;;;16.66;100.00;95816.81;10517697;28;1947;-73
2023/07/30 22:30:34;;;;;;;;;;;;;;;16.64;100.00;95824.47;10511773;28;2089;-74
2023/07/30 22:35:37;;;;;;;;;;;;;;;16.65;100.00;95826.88;10514165;28;2071;-74
2023/07/30 22:40:43;;;;;;;;;;;;;;;16.68;100.00;95818.13;10520395;28;4644;-75
2023/07/30 22:45:49;;;;;;;;;;;;;;;16.75;100.00;95825.84;10523902;28;2078;-75
2023/07/30 22:50:53;;;;;;;;;;;;;;;16.78;100.00;95825.22;10523165;28;2127;-74
2023/07/30 22:56:00;;;;;;;;;;;;;;;16.72;100.00;95821.84;10528800;28;2036;-75
2023/07/30 23:01:05;;;;;;;;;;;;;;;16.58;100.00;95814.88;10505705;28;2572;-75
2023/07/30 23:06:14;;;;;;;;;;;;;;;16.48;100.00;95815.94;10508927;28;2147;-74
2023/07/30 23:11:18;;;;;;;;;;;;;;;16.54;100.00;95814.69;10525631;28;1849;-73
2023/07/30 23:16:28;;;;;;;;;;;;;;;16.43;100.00;95818.78;10525259;28;1849;-75
2023/07/30 23:21:31;;;;;;;;;;;;;;;16.46;100.00;95826.28;10503449;28;1966;-75
2023/07/30 23:26:35;;;;;;;;;;;;;;;16.45;100.00;95822.78;10524248;28;1974;-74
2023/07/30 23:31:39;;;;;;;;;;;;;;;16.46;100.00;95821.66;10523638;28;1865;-74
2023/07/30 23:36:44;;;;;;;;;;;;;;;16.64;100.00;95824.47;10526650;28;4634;-74
2023/07/30 23:41:50;;;;;;;;;;;;;;;16.60;100.00;95818.84;10502143;28;1957;-73
2023/07/30 23:47:17;;;;;;;;;;;;;;;16.52;100.00;95816.91;10528719;28;1904;-74
2023/07/30 23:52:20;;;;;;;;;;;;;;;16.65;100.00;95810.59;10519873;28;1935;-73
2023/07/30 23:57:29;;;;;;;;;;;;;;;16.64;100.00;95803.56;10505285;28;1901;-73
